Time;durP1;ratioP1;P1;durP2;ratioP2;P2;SDS_P1;SDS_P2;PMS_P1;PMS_P2;Temp;Humidity;BMP_temperature;BMP_pressure;BME280_temperature;BME280_humidity;BME280_pressure;Samples;Min_cycle;Max_cycle;Signal;HPM_P1;HPM_P2
2022/04/19 00:01:12;;;;;;;4.00;3.70;;;;;;;6.75;67.70;94055.94;5056589;28;20463;-80
2022/04/19 00:03:38;;;;;;;3.80;3.50;;;;;;;6.62;68.29;94048.84;5054171;28;20179;-80
2022/04/19 00:06:04;;;;;;;4.60;4.30;;;;;;;6.64;67.93;94046.88;5056120;28;20254;-80
2022/04/19 00:08:30;;;;;;;4.40;4.10;;;;;;;6.75;67.48;94048.16;5067225;28;20211;-79
2022/04/19 00:10:55;;;;;;;4.63;4.33;;;;;;;6.65;67.29;94045.06;5060245;28;20422;-79
2022/04/19 00:13:21;;;;;;;3.40;3.20;;;;;;;6.40;68.92;94042.81;5052111;28;20480;-80
2022/04/19 00:15:47;;;;;;;3.50;3.20;;;;;;;6.26;69.30;94038.47;5055452;28;20175;-79
2022/04/19 00:18:13;;;;;;;3.57;3.37;;;;;;;6.38;69.28;94026.59;5062513;28;20178;-80
2022/04/19 00:20:42;;;;;;;3.70;3.40;;;;;;;6.59;68.13;94023.22;5060817;28;20517;-79
2022/04/19 00:23:13;;;;;;;2.97;2.77;;;;;;;6.66;67.91;94028.47;5050098;28;20429;-80
2022/04/19 00:25:43;;;;;;;1.90;1.80;;;;;;;6.24;68.97;94024.81;5062703;28;20416;-80
2022/04/19 00:28:09;;;;;;;2.50;2.30;;;;;;;6.44;68.49;94025.06;5060565;28;20850;-79
2022/04/19 00:30:35;;;;;;;1.90;1.80;;;;;;;6.16;69.57;94022.34;5068093;28;20461;-80
2022/04/19 00:33:00;;;;;;;3.17;3.00;;;;;;;6.39;68.82;94012.63;5064048;28;20429;-79
2022/04/19 00:35:28;;;;;;;2.80;2.60;;;;;;;5.39;72.61;94021.75;5061372;28;20254;-80
2022/04/19 00:37:53;;;;;;;2.67;2.57;;;;;;;5.93;70.29;94018.06;5053095;28;20270;-80
2022/04/19 00:40:19;;;;;;;2.50;2.40;;;;;;;6.19;69.52;94011.59;5054654;28;20491;-80
2022/04/19 00:42:45;;;;;;;2.60;2.40;;;;;;;6.26;69.78;94009.88;5057348;28;20203;-80
2022/04/19 00:45:10;;;;;;;2.93;2.63;;;;;;;6.42;69.06;94012.25;5061163;28;20179;-79
2022/04/19 00:47:38;;;;;;;2.60;2.50;;;;;;;6.40;69.09;94008.22;5055724;28;20174;-80
2022/04/19 00:50:06;;;;;;;2.90;2.70;;;;;;;6.56;68.85;94012.38;5061767;28;20178;-79
2022/04/19 00:52:33;;;;;;;2.90;2.03;;;;;;;6.63;68.12;94010.66;5057038;28;20436;-79
2022/04/19 00:54:59;;;;;;;2.10;2.00;;;;;;;6.44;68.29;94010.25;5063856;28;20417;-80
2022/04/19 00:57:25;;;;;;;2.83;2.63;;;;;;;6.57;68.12;94004.41;5067852;28;20460;-79
2022/04/19 00:59:56;;;;;;;2.73;2.53;;;;;;;6.70;67.70;94001.13;5056511;28;20484;-79
2022/04/19 01:02:27;;;;;;;2.50;2.40;;;;;;;6.75;67.69;94005.75;5052313;28;20433;-79
2022/04/19 01:04:56;;;;;;;3.77;3.57;;;;;;;6.51;68.09;93999.16;5050526;28;20421;-79
2022/04/19 01:07:22;;;;;;;2.80;2.60;;;;;;;6.36;68.37;93996.59;5067761;28;20799;-79
2022/04/19 01:09:48;;;;;;;2.67;2.47;;;;;;;6.52;68.27;94000.75;5065086;28;20417;-80
2022/04/19 01:15:06;;;;;;;2.63;2.43;;;;;;;6.45;67.79;93995.50;5049197;28;20432;-80
2022/04/19 01:17:38;;;;;;;2.63;2.43;;;;;;;6.61;67.71;93997.03;5058809;28;20433;-80
2022/04/19 01:20:12;;;;;;;2.93;2.73;;;;;;;6.67;67.76;93993.69;5067380;28;20505;-80
2022/04/19 01:22:39;;;;;;;3.10;2.90;;;;;;;6.62;67.99;93998.63;5057473;28;20459;-80
2022/04/19 01:25:06;;;;;;;3.67;3.37;;;;;;;6.63;67.63;93997.66;5050526;28;20417;-80
2022/04/19 01:27:32;;;;;;;3.40;3.20;;;;;;;6.56;67.83;93996.78;5056240;28;20424;-78
2022/04/19 01:30:01;;;;;;;3.23;3.00;;;;;;;6.45;68.03;93991.09;5054804;28;20423;-80
2022/04/19 01:32:28;;;;;;;3.97;3.77;;;;;;;6.63;67.60;93992.44;5058977;28;20521;-79
2022/04/19 01:35:14;;;;;;;3.10;2.90;;;;;;;6.36;68.20;93996.59;5050167;28;20410;-79
2022/04/19 01:37:43;;;;;;;3.57;3.37;;;;;;;6.53;68.29;93987.56;5067470;28;20436;-80
2022/04/19 01:40:19;;;;;;;3.50;3.30;;;;;;;6.68;67.46;93990.09;5085893;28;21072;-79
2022/04/19 01:42:52;;;;;;;3.57;3.27;;;;;;;6.67;67.52;93988.47;5065912;28;20505;-80
2022/04/19 01:45:25;;;;;;;3.70;3.40;;;;;;;6.92;67.08;93990.69;5063973;28;20959;-79
2022/04/19 01:47:52;;;;;;;3.50;3.20;;;;;;;6.65;67.39;93991.25;5053347;28;20433;-79
2022/04/19 01:50:19;;;;;;;3.80;3.50;;;;;;;6.73;66.74;93998.13;5050375;28;20445;-79
2022/04/19 01:52:46;;;;;;;3.80;3.50;;;;;;;6.41;68.04;93989.84;5053916;28;20808;-79
2022/04/19 01:55:14;;;;;;;3.40;3.10;;;;;;;6.53;67.59;93992.75;5053959;28;20416;-80
2022/04/19 01:57:45;;;;;;;4.23;3.83;;;;;;;6.63;68.02;93992.44;5058378;28;21000;-79
2022/04/19 02:00:11;;;;;;;3.73;3.53;;;;;;;6.53;68.25;93991.97;5047654;28;20472;-79
2022/04/19 02:02:38;;;;;;;4.10;3.70;;;;;;;6.30;68.64;93997.31;5060471;28;20467;-80
2022/04/19 02:05:05;;;;;;;3.57;3.37;;;;;;;6.29;68.54;93996.50;5046842;28;20460;-79
2022/04/19 02:07:32;;;;;;;4.30;3.90;;;;;;;6.40;68.20;93990.84;5046972;28;20440;-79
2022/04/19 02:10:01;;;;;;;3.63;3.37;;;;;;;6.68;68.26;93990.09;5065292;28;20423;-79
2022/04/19 02:12:27;;;;;;;3.70;3.40;;;;;;;6.65;67.48;93993.88;5067392;28;20497;-78
2022/04/19 02:14:52;;;;;;;4.20;3.83;;;;;;;6.58;67.63;93989.59;5051084;28;20463;-79
2022/04/19 02:17:23;;;;;;;3.70;3.40;;;;;;;6.59;67.35;93986.81;5060648;28;20424;-79
2022/04/19 02:19:58;;;;;;;3.60;3.40;;;;;;;6.60;67.58;93987.63;5053720;28;20191;-79
2022/04/19 02:22:23;;;;;;;4.70;4.40;;;;;;;6.43;68.13;93987.03;5058690;28;20455;-79
2022/04/19 02:24:49;;;;;;;3.63;3.43;;;;;;;6.49;68.41;93985.50;5046143;28;20398;-79
2022/04/19 02:27:15;;;;;;;4.00;3.60;;;;;;;6.59;67.83;93991.22;5049723;28;20337;-79
2022/04/19 02:29:40;;;;;;;3.50;3.30;;;;;;;6.43;68.33;93985.28;5045896;28;20167;-79
2022/04/19 02:32:06;;;;;;;3.87;3.67;;;;;;;6.78;67.20;93995.00;5062408;28;20498;-79
2022/04/19 02:34:34;;;;;;;3.50;3.20;;;;;;;6.47;67.77;93987.50;5052495;28;20170;-79
2022/04/19 02:37:00;;;;;;;4.50;4.10;;;;;;;6.74;67.33;93989.34;5057647;28;20255;-79
2022/04/19 02:39:25;;;;;;;3.33;3.13;;;;;;;6.35;68.50;93987.19;5049333;28;20409;-79
2022/04/19 02:41:52;;;;;;;3.53;3.33;;;;;;;6.68;68.08;93987.50;5048204;28;20187;-79
2022/04/19 02:44:17;;;;;;;4.30;4.00;;;;;;;6.45;67.88;93988.50;5055872;28;20167;-79
2022/04/19 02:46:43;;;;;;;3.20;3.00;;;;;;;6.54;67.68;93990.97;5047798;28;20426;-79
2022/04/19 02:49:08;;;;;;;3.03;2.83;;;;;;;6.39;68.25;93991.84;5081046;28;20164;-78
2022/04/19 02:51:34;;;;;;;3.13;2.90;;;;;;;6.67;67.60;93991.09;5064365;28;20162;-79
2022/04/19 02:54:00;;;;;;;4.77;4.37;;;;;;;6.38;68.37;93987.63;5065151;28;20182;-78
2022/04/19 02:56:25;;;;;;;3.80;3.50;;;;;;;6.44;67.99;93993.88;5066893;28;20217;-79
2022/04/19 02:58:51;;;;;;;3.50;3.17;;;;;;;6.65;67.41;93996.47;5060119;28;20250;-79
2022/04/19 03:01:16;;;;;;;3.93;3.60;;;;;;;6.71;66.64;94002.72;5065418;28;20193;-79
2022/04/19 03:03:43;;;;;;;3.97;3.33;;;;;;;6.26;68.07;94012.50;5058916;28;20180;-79
2022/04/19 03:06:09;;;;;;;3.37;3.17;;;;;;;6.24;68.68;94009.25;5062140;28;20163;-79
2022/04/19 03:08:35;;;;;;;3.33;3.13;;;;;;;6.04;69.03;94009.03;5050237;28;20468;-79
2022/04/19 03:11:03;;;;;;;3.87;3.60;;;;;;;6.08;69.19;94014.66;5056601;28;20178;-78
2022/04/19 03:13:31;;;;;;;3.60;3.30;;;;;;;5.79;69.29;94021.47;5053391;28;20441;-79
2022/04/19 03:15:56;;;;;;;3.60;3.33;;;;;;;6.27;68.92;94021.88;5055334;28;20422;-79
2022/04/19 03:18:22;;;;;;;3.83;3.53;;;;;;;6.41;68.15;94015.84;5054778;28;20505;-79
2022/04/19 03:20:47;;;;;;;3.30;3.10;;;;;;;6.39;68.05;94020.41;5048934;28;20187;-79
2022/04/19 03:28:42;;;;;;;4.23;3.93;;;;;;;6.56;67.01;94017.56;5048176;28;20487;-79
2022/04/19 03:31:08;;;;;;;4.37;4.07;;;;;;;6.32;67.87;94027.34;5058709;28;20486;-79
2022/04/19 03:33:36;;;;;;;3.60;3.40;;;;;;;6.43;67.78;94024.25;5058903;28;20685;-79
2022/04/19 03:36:02;;;;;;;4.63;4.33;;;;;;;6.20;68.36;94029.59;5048110;28;20410;-79
2022/04/19 03:38:28;;;;;;;4.47;4.17;;;;;;;6.41;67.87;94028.84;5045520;28;20422;-78
2022/04/19 03:40:53;;;;;;;4.33;4.03;;;;;;;6.43;67.71;94034.66;5059059;28;20471;-79
2022/04/19 03:43:19;;;;;;;4.37;4.00;;;;;;;6.38;67.97;94036.19;5049004;28;20187;-79
2022/04/19 03:45:44;;;;;;;4.63;4.23;;;;;;;6.42;67.98;94035.63;5046812;28;20182;-79
2022/04/19 03:48:13;;;;;;;4.90;4.50;;;;;;;6.49;67.62;94032.28;5054866;28;20187;-78
2022/04/19 03:50:39;;;;;;;4.70;4.40;;;;;;;6.60;67.24;94039.59;5049697;28;20166;-79
2022/04/19 03:53:05;;;;;;;6.30;4.57;;;;;;;6.56;67.04;94040.97;5058797;28;20448;-79
2022/04/19 03:55:30;;;;;;;4.30;3.97;;;;;;;6.57;66.79;94040.78;5051999;28;20414;-79
2022/04/19 03:57:56;;;;;;;4.63;4.33;;;;;;;6.73;66.83;94044.94;5059346;28;20182;-79
2022/04/19 04:00:21;;;;;;;4.97;4.60;;;;;;;6.71;66.67;94046.91;5050030;28;20191;-78
2022/04/19 04:02:47;;;;;;;4.00;3.77;;;;;;;6.86;66.05;94051.25;5045403;28;20256;-79
2022/04/19 04:05:12;;;;;;;8.00;7.30;;;;;;;6.43;66.43;94045.03;5054638;28;20332;-80
2022/04/19 04:07:39;;;;;;;6.40;5.80;;;;;;;6.29;67.47;94052.88;5056173;28;20579;-80
2022/04/19 04:10:05;;;;;;;9.30;8.37;;;;;;;6.20;67.97;94053.00;5059049;28;20664;-80
2022/04/19 04:12:31;;;;;;;8.47;7.17;;;;;;;5.81;69.46;94051.47;5050111;28;20420;-79
2022/04/19 04:14:56;;;;;;;6.77;6.17;;;;;;;5.77;69.03;94050.22;5055131;28;20431;-79
2022/04/19 04:17:22;;;;;;;8.40;7.63;;;;;;;5.96;69.04;94067.06;5055711;28;20209;-79
2022/04/19 04:19:47;;;;;;;8.23;7.43;;;;;;;6.06;68.86;94059.78;5051473;28;20210;-79
2022/04/19 04:22:13;;;;;;;7.57;6.87;;;;;;;5.94;68.75;94057.78;5057738;28;20257;-79
2022/04/19 04:24:38;;;;;;;8.47;7.70;;;;;;;6.10;69.07;94060.25;5058995;28;20175;-78
2022/04/19 04:27:04;;;;;;;8.03;7.23;;;;;;;5.89;69.73;94062.75;5052156;28;20183;-78
2022/04/19 04:29:30;;;;;;;7.20;6.17;;;;;;;5.49;70.46;94068.19;5059939;28;20182;-78
2022/04/19 04:31:55;;;;;;;9.20;8.30;;;;;;;5.74;70.12;94065.34;5059239;28;20222;-79
2022/04/19 04:34:21;;;;;;;9.80;8.43;;;;;;;6.05;69.15;94071.19;5055217;28;20424;-79
2022/04/19 04:36:47;;;;;;;9.60;8.60;;;;;;;5.85;69.95;94075.28;5053516;28;20286;-79
2022/04/19 04:39:14;;;;;;;13.30;9.83;;;;;;;6.26;68.86;94072.25;5073422;28;20440;-80
2022/04/19 04:41:39;;;;;;;11.77;8.40;;;;;;;5.70;70.22;94070.06;5065103;28;20692;-80
2022/04/19 04:44:05;;;;;;;10.17;7.90;;;;;;;6.14;69.03;94076.28;5068736;28;20500;-81
2022/04/19 04:51:58;;;;;;;10.77;8.57;;;;;;;5.63;71.08;94084.75;5051085;28;20452;-81
2022/04/19 04:54:24;;;;;;;9.10;7.90;;;;;;;5.89;70.54;94078.31;5050455;28;20422;-81
2022/04/19 04:56:49;;;;;;;12.20;8.13;;;;;;;6.22;68.92;94081.34;5052912;28;20217;-81
2022/04/19 04:59:15;;;;;;;8.43;7.40;;;;;;;6.26;69.08;94090.44;5068754;28;20189;-81
2022/04/19 05:01:40;;;;;;;10.03;7.97;;;;;;;6.70;68.26;94084.31;5054208;28;20199;-80
2022/04/19 05:04:06;;;;;;;8.10;7.03;;;;;;;6.69;67.16;94084.50;5049434;28;20243;-81
2022/04/19 05:06:31;;;;;;;8.10;7.00;;;;;;;6.53;67.83;94085.53;5050873;28;20186;-80
2022/04/19 05:08:57;;;;;;;7.73;6.60;;;;;;;6.28;67.88;94088.44;5050066;28;20311;-81
2022/04/19 05:11:22;;;;;;;9.30;7.20;;;;;;;7.27;65.38;94089.66;5057595;28;20301;-81
2022/04/19 05:13:48;;;;;;;5.80;5.30;;;;;;;7.12;64.61;94093.13;5063775;28;20186;-81
2022/04/19 05:16:13;;;;;;;8.10;7.30;;;;;;;6.94;66.32;94087.53;5050521;28;20314;-80
2022/04/19 05:18:38;;;;;;;8.07;6.60;;;;;;;6.21;68.77;94093.56;5054024;28;20183;-81
2022/04/19 05:21:05;;;;;;;5.47;5.07;;;;;;;6.25;66.90;94086.19;5053814;28;20195;-81
2022/04/19 05:23:30;;;;;;;9.07;6.63;;;;;;;6.04;68.72;94092.94;5049228;28;20609;-81
2022/04/19 05:25:56;;;;;;;7.70;6.53;;;;;;;6.54;68.06;94092.31;5060045;28;20425;-82
2022/04/19 05:28:21;;;;;;;7.17;6.27;;;;;;;6.78;67.07;94097.19;5062403;28;20186;-81
2022/04/19 05:30:47;;;;;;;5.97;5.23;;;;;;;6.27;67.57;94094.63;5049629;28;20253;-81
2022/04/19 05:33:12;;;;;;;6.77;6.20;;;;;;;5.79;68.75;94097.56;5059036;28;20189;-81
2022/04/19 05:35:41;;;;;;;8.17;6.20;;;;;;;5.94;68.12;94092.38;5067570;28;20174;-80
2022/04/19 05:38:06;;;;;;;5.70;5.13;;;;;;;5.99;68.61;94094.47;5060416;28;20167;-80
2022/04/19 05:40:32;;;;;;;6.30;5.80;;;;;;;6.03;69.07;94099.13;5050037;28;20544;-80
2022/04/19 05:42:57;;;;;;;8.07;7.27;;;;;;;6.75;68.09;94100.16;5057166;28;20190;-80
2022/04/19 05:45:23;;;;;;;5.43;4.90;;;;;;;5.59;71.28;94110.25;5046562;28;20182;-80
2022/04/19 05:47:48;;;;;;;7.17;6.23;;;;;;;5.85;69.53;94111.63;5055590;28;20278;-80
2022/04/19 05:50:13;;;;;;;7.47;6.47;;;;;;;5.92;69.79;94106.50;5065871;28;20155;-80
2022/04/19 05:52:39;;;;;;;6.60;5.93;;;;;;;5.92;69.56;94114.28;5060123;28;20191;-80
2022/04/19 05:55:05;;;;;;;10.13;7.60;;;;;;;5.73;70.16;94113.84;5051190;28;20168;-81
2022/04/19 05:57:31;;;;;;;6.50;5.90;;;;;;;5.99;69.48;94110.84;5053865;28;20325;-81
2022/04/19 05:59:56;;;;;;;4.90;3.80;;;;;;;5.47;70.66;94114.25;5056653;28;20462;-80
2022/04/19 06:05:07;;;;;;;5.23;4.70;;;;;;;5.91;70.72;94113.50;5057858;28;20217;-80
2022/04/19 06:07:32;;;;;;;5.83;5.33;;;;;;;6.48;69.09;94116.47;5057837;28;20425;-80
2022/04/19 06:09:59;;;;;;;7.33;6.73;;;;;;;7.21;67.33;94115.41;5060860;28;20424;-81
2022/04/19 06:12:25;;;;;;;7.00;6.47;;;;;;;7.26;66.37;94106.25;5063388;28;20175;-80
2022/04/19 06:14:50;;;;;;;6.13;5.50;;;;;;;7.49;65.26;94114.63;5047758;28;20429;-81
2022/04/19 06:17:17;;;;;;;4.80;4.40;;;;;;;7.04;65.91;94119.25;5047347;28;20955;-81
2022/04/19 06:19:46;;;;;;;5.63;5.23;;;;;;;6.69;67.27;94116.50;5058479;28;20195;-81
2022/04/19 06:22:11;;;;;;;5.47;5.00;;;;;;;6.61;67.14;94117.41;5060227;28;20451;-80
2022/04/19 06:24:37;;;;;;;4.67;4.30;;;;;;;6.16;68.85;94118.47;5053789;28;20478;-80
2022/04/19 06:27:03;;;;;;;3.87;3.57;;;;;;;5.90;69.92;94117.09;5060771;28;20202;-80
2022/04/19 06:29:29;;;;;;;3.50;3.20;;;;;;;6.08;69.16;94123.75;5053417;28;20179;-80
2022/04/19 06:31:54;;;;;;;4.00;3.70;;;;;;;6.24;69.16;94126.97;5060847;28;20494;-81
2022/04/19 06:34:20;;;;;;;4.00;3.60;;;;;;;6.01;69.05;94124.47;5055942;28;20188;-80
2022/04/19 06:36:45;;;;;;;3.73;2.90;;;;;;;6.35;68.10;94124.88;5060965;28;20680;-80
2022/04/19 06:39:11;;;;;;;3.80;3.50;;;;;;;6.93;66.18;94133.56;5058720;28;20190;-81
2022/04/19 06:41:37;;;;;;;4.50;4.10;;;;;;;6.79;66.64;94127.41;5049369;28;20199;-81
2022/04/19 06:44:04;;;;;;;3.37;3.17;;;;;;;6.47;66.81;94127.81;5061064;28;20493;-81
2022/04/19 06:46:29;;;;;;;4.03;3.83;;;;;;;6.15;68.51;94127.25;5057259;28;20198;-80
2022/04/19 06:48:54;;;;;;;4.13;3.73;;;;;;;6.76;67.45;94132.97;5061557;28;20413;-81
2022/04/19 06:51:21;;;;;;;3.03;2.83;;;;;;;6.60;66.70;94125.38;5058392;28;20168;-81
2022/04/19 06:53:46;;;;;;;3.47;3.17;;;;;;;6.66;66.43;94132.47;5049765;28;20187;-81
2022/04/19 06:56:12;;;;;;;2.90;2.70;;;;;;;6.60;67.46;94127.97;5065654;28;20946;-80
2022/04/19 06:58:39;;;;;;;4.40;3.37;;;;;;;6.93;66.01;94136.16;5060113;28;20174;-81
2022/04/19 07:01:05;;;;;;;3.90;3.60;;;;;;;6.68;66.55;94134.88;5056690;28;20205;-80
2022/04/19 07:03:31;;;;;;;3.03;2.87;;;;;;;6.86;66.63;94147.47;5064633;28;20459;-81
2022/04/19 07:05:57;;;;;;;3.83;3.37;;;;;;;6.12;68.79;94138.78;5046012;28;20421;-80
2022/04/19 07:08:22;;;;;;;3.97;3.63;;;;;;;6.94;66.42;94148.16;5044784;28;20183;-81
2022/04/19 07:10:48;;;;;;;3.50;3.20;;;;;;;7.06;66.61;94145.06;5061630;28;20448;-81
2022/04/19 07:13:17;;;;;;;3.50;3.30;;;;;;;6.88;66.26;94150.69;5055343;28;20190;-80
2022/04/19 07:15:51;;;;;;;4.03;3.73;;;;;;;7.14;65.80;94148.38;5058893;28;20181;-79
2022/04/19 07:18:17;;;;;;;3.83;3.53;;;;;;;6.89;65.48;94155.72;5064350;28;20515;-80
2022/04/19 07:28:55;;;;;;;2.87;2.60;;;;;;;6.74;63.77;94153.16;5045539;28;20425;-80
2022/04/19 07:31:21;;;;;;;3.30;3.00;;;;;;;7.08;63.15;94151.72;5058768;28;20452;-80
2022/04/19 07:33:46;;;;;;;4.30;3.90;;;;;;;7.52;62.25;94161.13;5046471;28;20217;-80
2022/04/19 07:36:12;;;;;;;4.43;4.13;;;;;;;8.81;60.17;94154.72;5053011;28;20190;-81
2022/04/19 07:38:37;;;;;;;6.23;4.20;;;;;;;8.86;59.22;94152.34;5063270;28;20220;-81
2022/04/19 07:41:04;;;;;;;4.10;3.70;;;;;;;8.42;60.33;94156.16;5061949;28;20453;-80
2022/04/19 07:43:36;;;;;;;4.23;3.93;;;;;;;8.53;59.91;94157.41;5064243;28;20193;-80
2022/04/19 07:46:04;;;;;;;3.07;2.93;;;;;;;8.59;58.68;94152.25;5052483;28;20418;-81
2022/04/19 07:48:30;;;;;;;3.10;2.90;;;;;;;8.56;59.13;94149.22;5054426;28;20430;-80
2022/04/19 07:50:59;;;;;;;3.13;2.93;;;;;;;7.96;60.43;94160.06;5053598;28;20406;-80
2022/04/19 07:53:27;;;;;;;4.53;4.23;;;;;;;8.33;60.54;94150.28;5064464;28;20513;-80
2022/04/19 07:55:55;;;;;;;3.63;3.00;;;;;;;9.09;58.53;94159.84;5066559;28;20404;-81
2022/04/19 07:58:20;;;;;;;4.33;3.93;;;;;;;9.45;57.20;94150.84;5056444;28;20441;-81
2022/04/19 08:00:46;;;;;;;4.30;4.00;;;;;;;8.55;59.69;94158.03;5057329;28;20449;-81
2022/04/19 08:04:14;;;;;;;;;;;;;;;;;;;;;
2022/04/19 08:06:42;;;;;;;4.60;3.80;;;;;;;9.66;55.87;94149.88;5067914;28;20201;-80
2022/04/19 08:09:08;;;;;;;4.67;4.10;;;;;;;9.74;55.21;94147.03;5061662;28;20416;-79
2022/04/19 08:11:34;;;;;;;3.80;3.50;;;;;;;8.90;56.68;94144.94;5068236;28;20409;-80
2022/04/19 08:14:05;;;;;;;3.90;3.60;;;;;;;8.86;56.45;94159.34;5067690;28;20600;-80
2022/04/19 08:16:30;;;;;;;3.97;3.67;;;;;;;8.92;55.15;94153.38;5056029;28;20186;-80
2022/04/19 08:18:56;;;;;;;5.07;3.83;;;;;;;9.35;54.58;94142.59;5067946;28;20484;-80
2022/04/19 08:21:22;;;;;;;3.77;3.47;;;;;;;9.81;53.51;94152.28;5053956;28;20225;-81
2022/04/19 08:23:48;;;;;;;3.57;3.20;;;;;;;10.02;52.10;94148.66;5063081;28;20626;-80
2022/04/19 08:26:13;;;;;;;3.27;3.07;;;;;;;9.54;52.95;94141.84;5067304;28;20425;-80
2022/04/19 08:28:38;;;;;;;4.20;3.90;;;;;;;9.87;52.09;94140.22;5062110;28;20191;-80
2022/04/19 08:31:04;;;;;;;4.03;3.77;;;;;;;9.91;51.18;94142.22;5056453;28;20226;-80
2022/04/19 08:33:29;;;;;;;3.60;3.30;;;;;;;10.82;49.25;94143.22;5061609;28;20696;-80
2022/04/19 08:35:55;;;;;;;3.70;3.10;;;;;;;10.89;49.06;94132.75;5059505;28;20234;-81
2022/04/19 08:38:20;;;;;;;3.63;3.43;;;;;;;10.96;48.34;94130.06;5048891;28;20551;-80
2022/04/19 08:40:48;;;;;;;3.93;3.60;;;;;;;11.44;48.82;94124.34;5062182;28;20216;-80
2022/04/19 08:43:13;;;;;;;3.27;3.07;;;;;;;10.61;47.98;94131.22;5068391;28;20221;-80
2022/04/19 08:45:43;;;;;;;3.60;3.40;;;;;;;11.32;47.22;94129.47;5055721;28;20418;-81
2022/04/19 08:48:09;;;;;;;4.60;4.20;;;;;;;11.47;46.91;94127.34;5061721;28;20186;-81
2022/04/19 08:50:36;;;;;;;4.50;3.73;;;;;;;11.64;45.78;94125.00;5049829;28;20410;-81
2022/04/19 08:58:30;;;;;;;3.73;3.30;;;;;;;11.23;46.83;94130.72;5066966;28;20443;-82
2022/04/19 09:00:55;;;;;;;4.07;3.77;;;;;;;11.64;45.70;94125.00;5061599;28;20449;-80
2022/04/19 09:03:54;;;;;;;4.03;3.73;;;;;;;11.30;45.12;94123.63;5067236;28;20186;-80
2022/04/19 09:06:20;;;;;;;3.17;2.93;;;;;;;10.75;45.88;94118.88;5053319;28;20178;-81
2022/04/19 09:09:09;;;;;;;3.90;3.60;;;;;;;11.48;44.46;94122.94;5067437;28;20494;-80
2022/04/19 09:11:35;;;;;;;4.60;4.20;;;;;;;12.47;42.73;94112.56;5065429;28;20189;-79
2022/04/19 09:14:05;;;;;;;5.70;5.30;;;;;;;12.33;45.48;94116.34;5061575;28;20433;-81
2022/04/19 09:16:40;;;;;;;3.47;3.27;;;;;;;11.10;44.91;94114.09;5057710;28;20531;-80
2022/04/19 09:19:16;;;;;;;6.93;4.00;;;;;;;11.24;45.86;94122.66;5061853;28;20420;-80
2022/04/19 09:21:42;;;;;;;5.30;4.80;;;;;;;11.08;44.83;94110.88;5061476;28;20463;-80
2022/04/19 09:24:18;;;;;;;3.97;3.67;;;;;;;11.75;44.21;94109.63;5067992;28;20485;-81
2022/04/19 09:26:48;;;;;;;4.70;4.30;;;;;;;11.87;43.41;94118.38;5066846;28;20170;-81
2022/04/19 09:29:25;;;;;;;5.27;4.87;;;;;;;11.52;44.71;94108.38;5049256;28;20418;-80
2022/04/19 09:32:01;;;;;;;5.37;4.97;;;;;;;10.40;46.27;94113.22;5047671;28;20473;-81
2022/04/19 09:34:32;;;;;;;4.70;4.40;;;;;;;10.91;45.13;94110.56;5057384;28;20436;-80
2022/04/19 09:37:11;;;;;;;7.10;5.40;;;;;;;10.48;46.54;94118.19;5064969;28;20409;-81
2022/04/19 09:39:38;;;;;;;5.90;5.40;;;;;;;10.12;47.17;94112.41;5056787;28;20421;-80
2022/04/19 09:42:06;;;;;;;5.50;5.03;;;;;;;10.30;44.58;94109.22;5065670;28;20409;-80
2022/04/19 09:44:37;;;;;;;5.80;5.40;;;;;;;10.38;45.00;94112.59;5066779;28;20409;-80
2022/04/19 09:47:07;;;;;;;5.37;4.97;;;;;;;11.23;44.75;94107.16;5066791;28;20424;-81
2022/04/19 09:49:48;;;;;;;4.17;3.77;;;;;;;11.00;42.69;94103.25;5067894;28;20409;-81
2022/04/19 09:52:23;;;;;;;6.10;4.80;;;;;;;12.24;42.49;94107.97;5066673;28;20424;-80
2022/04/19 09:55:09;;;;;;;10.83;5.67;;;;;;;12.72;41.16;94099.34;5047647;28;20429;-81
2022/04/19 09:57:38;;;;;;;5.90;5.30;;;;;;;12.69;40.13;94105.84;5056789;28;20493;-80
2022/04/19 10:00:09;;;;;;;7.37;5.50;;;;;;;12.11;40.62;94103.66;5054075;28;20457;-81
2022/04/19 10:08:18;;;;;;;5.63;4.10;;;;;;;11.11;43.33;94094.72;5059180;28;20424;-81
2022/04/19 10:10:48;;;;;;;6.33;5.73;;;;;;;11.29;41.96;94098.47;5065275;28;20421;-81
2022/04/19 10:13:17;;;;;;;5.30;4.80;;;;;;;11.22;42.72;94087.22;5056574;28;20409;-82
2022/04/19 10:15:43;;;;;;;8.30;6.00;;;;;;;11.43;41.45;94092.09;5061701;28;20524;-81
2022/04/19 10:18:10;;;;;;;6.03;4.90;;;;;;;12.45;38.72;94093.63;5051497;28;20518;-82
2022/04/19 10:20:58;;;;;;;5.00;4.33;;;;;;;12.59;34.95;94089.81;5065975;28;20461;-82
2022/04/19 10:23:34;;;;;;;4.33;4.00;;;;;;;12.87;36.37;94080.59;5067564;28;20410;-82
2022/04/19 10:26:13;;;;;;;5.13;4.70;;;;;;;12.72;36.75;94077.56;5057482;28;20916;-82
2022/04/19 10:28:39;;;;;;;3.33;3.00;;;;;;;14.15;33.19;94075.81;5060164;28;20504;-82
2022/04/19 10:31:05;;;;;;;6.57;3.50;;;;;;;12.90;33.82;94074.91;5047815;28;20528;-82
2022/04/19 10:33:45;;;;;;;3.57;3.37;;;;;;;12.42;34.03;94078.31;5059201;28;20174;-82
2022/04/19 10:36:13;;;;;;;3.60;3.40;;;;;;;12.29;33.54;94072.19;5048721;28;20449;-81
2022/04/19 10:38:39;;;;;;;3.63;3.30;;;;;;;12.02;34.69;94057.75;5061162;28;20474;-81
2022/04/19 10:41:05;;;;;;;3.50;3.30;;;;;;;11.09;37.61;94060.09;5066194;28;20498;-82
2022/04/19 10:43:31;;;;;;;3.90;3.30;;;;;;;11.25;39.17;94073.69;5059270;28;20426;-82
2022/04/19 10:46:19;;;;;;;3.83;3.53;;;;;;;11.51;39.18;94073.53;5057317;28;20194;-81
2022/04/19 10:49:23;;;;;;;3.30;3.00;;;;;;;11.69;39.52;94074.56;5061115;28;20213;-81
2022/04/19 10:51:50;;;;;;;4.87;3.50;;;;;;;11.12;38.44;94078.03;5056220;28;20418;-81
2022/04/19 10:54:16;;;;;;;3.33;3.13;;;;;;;10.82;36.66;94074.38;5061050;28;20428;-81
2022/04/19 11:00:19;;;;;;;3.33;2.63;;;;;;;11.05;36.95;94079.88;5065303;28;20474;-82
2022/04/19 11:02:56;;;;;;;3.40;3.20;;;;;;;11.50;38.24;94079.75;5052129;28;20421;-82
2022/04/19 11:05:42;;;;;;;5.60;4.50;;;;;;;11.88;39.13;94086.69;5046694;28;20449;-82
2022/04/19 11:08:25;;;;;;;3.87;3.57;;;;;;;12.84;35.50;94075.75;5066586;28;20447;-82
2022/04/19 11:10:57;;;;;;;5.60;3.70;;;;;;;13.05;36.70;94069.22;5064363;28;20481;-81
2022/04/19 11:13:36;;;;;;;3.87;3.57;;;;;;;14.35;33.87;94070.16;5062543;28;20421;-81
2022/04/19 11:16:13;;;;;;;2.70;2.50;;;;;;;14.22;32.50;94063.28;5047252;28;20429;-82
2022/04/19 11:18:39;;;;;;;3.07;2.87;;;;;;;14.90;31.97;94060.97;5046427;28;20464;-82
2022/04/19 11:21:12;;;;;;;3.20;3.00;;;;;;;14.72;32.38;94061.97;5053854;28;20464;-82
2022/04/19 11:23:41;;;;;;;3.07;2.83;;;;;;;15.08;32.30;94056.53;5052189;28;20190;-81
2022/04/19 11:26:09;;;;;;;2.50;2.40;;;;;;;15.14;30.67;94053.78;5050978;28;20421;-81
2022/04/19 11:28:35;;;;;;;3.50;3.30;;;;;;;13.60;34.81;94052.44;5061042;28;20432;-81
2022/04/19 11:31:00;;;;;;;3.40;3.10;;;;;;;13.32;33.09;94053.91;5063036;28;20664;-81
2022/04/19 11:33:34;;;;;;;4.10;3.80;;;;;;;12.18;34.33;94049.31;5061067;28;20177;-81
2022/04/19 11:36:02;;;;;;;2.90;2.70;;;;;;;12.49;33.48;94052.78;5065954;28;20190;-82
2022/04/19 11:38:29;;;;;;;3.40;3.10;;;;;;;12.22;34.79;94054.94;5061738;28;20456;-82
2022/04/19 11:46:45;;;;;;;3.60;3.30;;;;;;;12.56;33.17;94037.78;5050601;28;20555;-82
2022/04/19 11:49:35;;;;;;;3.50;3.20;;;;;;;12.26;32.36;94043.78;5050430;28;20412;-82
2022/04/19 11:52:08;;;;;;;3.30;2.37;;;;;;;11.81;32.87;94033.53;5050596;28;20477;-81
2022/04/19 11:54:34;;;;;;;3.00;2.80;;;;;;;11.37;34.05;94051.06;5050097;28;20410;-81
2022/04/19 11:57:03;;;;;;;2.50;2.37;;;;;;;10.65;37.25;94061.78;5055311;28;20409;-81
2022/04/19 11:59:32;;;;;;;3.50;3.20;;;;;;;10.80;38.48;94069.34;5068989;28;20242;-81
2022/04/19 12:01:58;;;;;;;2.93;2.63;;;;;;;10.40;39.90;94073.97;5065114;28;20511;-81
2022/04/19 12:04:25;;;;;;;5.00;2.73;;;;;;;10.22;40.50;94077.22;5070091;28;20428;-81
2022/04/19 12:07:02;;;;;;;2.70;2.60;;;;;;;11.16;38.74;94070.53;5058011;28;20459;-82
2022/04/19 12:09:30;;;;;;;2.80;2.70;;;;;;;11.61;38.59;94073.03;5049779;28;20424;-80
2022/04/19 12:11:57;;;;;;;3.80;3.20;;;;;;;11.99;37.08;94066.03;5064721;28;20405;-81
2022/04/19 12:14:30;;;;;;;3.20;3.00;;;;;;;12.56;35.73;94066.63;5062870;28;20426;-81
2022/04/19 12:17:06;;;;;;;2.73;2.63;;;;;;;12.05;37.50;94062.56;5068313;28;20424;-82
2022/04/19 12:19:38;;;;;;;3.50;3.20;;;;;;;12.55;35.12;94051.91;5059962;28;20460;-81
2022/04/19 12:22:21;;;;;;;3.30;2.50;;;;;;;12.63;33.17;94043.72;5067735;28;20479;-81
2022/04/19 12:24:51;;;;;;;3.30;2.63;;;;;;;13.71;31.76;94042.97;5060493;28;20475;-82
2022/04/19 12:27:24;;;;;;;3.37;3.00;;;;;;;13.51;30.23;94032.78;5061131;28;20426;-82
2022/04/19 12:30:00;;;;;;;3.33;2.63;;;;;;;13.23;31.44;94031.59;5051044;28;20885;-82